ダッカ の空港の天気 - METARとTAF

シャージャラル国際空港(ダッカ) ( VGHS / DAC ) - バングラデシュ ダッカ
飛行場実況気象(Metar)
観測時間02/28 06:30 BDT (02/28 00:30 UTC)
風向・風速静穏 0m/s
視程3200m
天気現象煙霧
なし
気温20℃
湿度73%
気圧1013hPa
METARVGHS 280030Z 28030E0Z 00000KT 3200 HZ NSC 20/15 Q1013 TEMPO S/VIS 2500ME
過去の天気等 Google飛行場航空写真 Wunderground天気予報

過去48時間のMETAR

飛行場予報(TAF)
発表時間: 2/28 05:00 BDT (2/27 23:00 UTC)
予報対象時間: 28日6時 BDT ~ 1日12時 BDT
風向・風速静穏
視程1,500m
天気現象もや
全天の4割程度の雲 雲底高度 370m
28日8時 BDT ~ 28日10時 BDT に徐々に
風向・風速西 3m/s
視程2,000m
天気現象もや
全天の4割程度の雲 雲底高度 460m
28日11時 BDT ~ 28日13時 BDT に徐々に
風向・風速北西 4m/s
視程3,000m
天気現象煙霧
なし
28日18時 BDT ~ 28日20時 BDT に徐々に
風向・風速北 3m/s
視程3,500m
天気現象煙霧
なし
1日2時 BDT ~ 1日4時 BDT に徐々に
風向・風速不定 2m/s
視程2,500m
天気現象もや
なし
1日5時 BDT ~ 1日7時 BDT に徐々に
風向・風速静穏
視程1,500m
天気現象もや
全天の4割程度の雲 雲底高度 370m
1日10時 BDT ~ 1日12時 BDT に徐々に
風向・風速北西 4m/s
視程3,000m
天気現象煙霧
なし
TAF VGHS 272300Z 2800/0106 00000KT 1500 BR SCT012
BECMG 2802/2804 27006KT 2000 BR SCT015
BECMG 2805/2807 31008KT 3000 HZ NSC
BECMG 2812/2814 35006KT 3500 HZ NSC
BECMG 2820/2822 VRB03KT 2500 BR NSC
BECMG 2823/0101 00000KT 1500 BR SCT012
BECMG 0104/0106 31008KT 3000 HZ NSC